Time;durP1;ratioP1;P1;durP2;ratioP2;P2;SDS_P1;SDS_P2;PMS_P1;PMS_P2;Temp;Humidity;BMP_temperature;BMP_pressure;BME280_temperature;BME280_humidity;BME280_pressure;Samples;Min_cycle;Max_cycle;Signal;HPM_P1;HPM_P2
2022/04/22 00:00:17;;;;;;;21.42;14.85;;;;;;;8.76;100.00;99649.63;5104641;28;20077;-84
2022/04/22 00:02:42;;;;;;;20.20;13.93;;;;;;;8.78;100.00;99640.66;5079511;28;20020;-83
2022/04/22 00:05:07;;;;;;;19.38;13.95;;;;;;;8.81;100.00;99642.34;5097196;28;20023;-84
2022/04/22 00:07:33;;;;;;;22.13;13.90;;;;;;;8.76;100.00;99646.94;5097974;28;20016;-84
2022/04/22 00:09:58;;;;;;;20.20;14.52;;;;;;;8.72;100.00;99640.84;5098002;28;20048;-84
2022/04/22 00:12:24;;;;;;;22.33;14.55;;;;;;;8.72;100.00;99635.53;5098395;28;20028;-83
2022/04/22 00:14:49;;;;;;;25.77;16.25;;;;;;;8.64;100.00;99632.22;5099081;28;20031;-84
2022/04/22 00:17:15;;;;;;;21.85;15.27;;;;;;;8.74;100.00;99631.00;5101431;28;20107;-84
2022/04/22 00:22:16;;;;;;;21.98;15.50;;;;;;;8.64;100.00;99632.22;5094737;28;20489;-77
2022/04/22 00:24:41;;;;;;;25.10;16.00;;;;;;;8.65;100.00;99618.03;5095159;28;20024;-77
2022/04/22 00:27:07;;;;;;;23.05;16.10;;;;;;;8.57;100.00;99624.44;5095784;28;20035;-78
2022/04/22 00:29:32;;;;;;;25.83;17.05;;;;;;;8.58;100.00;99617.34;5095702;28;20028;-78
2022/04/22 00:31:57;;;;;;;25.63;17.75;;;;;;;8.59;100.00;99619.97;5095359;28;20043;-78
2022/04/22 00:34:22;;;;;;;25.20;17.45;;;;;;;8.56;100.00;99614.69;5095370;28;20024;-78
2022/04/22 00:36:48;;;;;;;29.60;17.48;;;;;;;8.51;100.00;99621.97;5095433;28;20024;-78
2022/04/22 00:39:13;;;;;;;24.77;17.55;;;;;;;8.49;100.00;99618.47;5095789;28;20477;-78
2022/04/22 00:41:39;;;;;;;27.67;18.05;;;;;;;8.47;100.00;99613.22;5095192;28;20024;-78
2022/04/22 00:44:04;;;;;;;26.95;18.90;;;;;;;8.41;100.00;99610.75;5095488;28;20117;-78
2022/04/22 00:46:29;;;;;;;30.67;18.95;;;;;;;8.37;100.00;99615.31;5095225;28;20020;-78
2022/04/22 00:48:55;;;;;;;33.28;21.13;;;;;;;8.37;100.00;99609.13;5095427;28;20036;-78
2022/04/22 00:51:22;;;;;;;29.70;20.23;;;;;;;8.36;100.00;99610.91;5095503;28;20019;-78
2022/04/22 00:53:49;;;;;;;32.03;21.23;;;;;;;8.31;100.00;99604.84;5095639;28;20031;-78
2022/04/22 00:56:15;;;;;;;31.30;21.10;;;;;;;8.28;100.00;99596.97;5094919;28;20027;-78
2022/04/22 00:58:43;;;;;;;31.27;21.83;;;;;;;8.23;100.00;99590.91;5095529;28;20053;-78
2022/04/22 01:01:11;;;;;;;33.25;21.77;;;;;;;8.16;100.00;99595.56;5094628;28;20124;-77
2022/04/22 01:03:36;;;;;;;32.08;21.63;;;;;;;8.12;100.00;99585.94;5094741;28;20024;-78
2022/04/22 01:11:35;;;;;;;34.75;23.67;;;;;;;8.04;100.00;99586.19;5095692;28;20153;-78
2022/04/22 01:14:01;;;;;;;32.50;22.13;;;;;;;8.02;100.00;99582.69;5094971;28;20024;-78
2022/04/22 01:16:28;;;;;;;34.33;21.88;;;;;;;8.01;100.00;99583.63;5094952;28;20031;-78
2022/04/22 01:18:55;;;;;;;34.45;23.25;;;;;;;7.98;100.00;99581.06;5077153;28;20040;-79
2022/04/22 01:21:20;;;;;;;32.25;21.38;;;;;;;7.96;100.00;99582.91;5076563;28;20468;-78
2022/04/22 01:23:46;;;;;;;39.65;23.38;;;;;;;7.88;100.00;99570.72;5095082;28;20031;-78
2022/04/22 01:26:13;;;;;;;36.50;24.80;;;;;;;7.88;100.00;99576.03;5080098;28;20051;-78
2022/04/22 01:28:39;;;;;;;38.17;23.90;;;;;;;7.83;100.00;99581.47;5099159;28;20028;-78
2022/04/22 01:31:04;;;;;;;39.03;24.63;;;;;;;7.85;100.00;99583.22;5099257;28;20042;-78
2022/04/22 01:33:30;;;;;;;38.78;24.25;;;;;;;7.83;100.00;99576.16;5098993;28;20178;-79
2022/04/22 01:35:55;;;;;;;35.25;23.52;;;;;;;7.87;100.00;99571.63;5099223;28;20024;-78
2022/04/22 01:38:20;;;;;;;34.38;23.23;;;;;;;7.84;100.00;99571.72;5080855;28;20553;-78
2022/04/22 01:40:46;;;;;;;35.72;23.73;;;;;;;7.77;100.00;99563.06;5098577;28;20020;-78
2022/04/22 01:43:11;;;;;;;38.45;23.73;;;;;;;7.78;100.00;99563.94;5099429;28;20157;-78
2022/04/22 01:45:36;;;;;;;41.05;24.95;;;;;;;7.70;100.00;99567.69;5080877;28;20023;-78
2022/04/22 01:48:02;;;;;;;39.08;23.90;;;;;;;7.69;100.00;99560.63;5080784;28;20027;-78
2022/04/22 01:50:27;;;;;;;38.15;24.20;;;;;;;7.70;100.00;99559.72;5098859;28;20077;-78
2022/04/22 01:52:53;;;;;;;35.28;23.48;;;;;;;7.71;100.00;99553.47;5098858;28;20111;-78
2022/04/22 01:55:19;;;;;;;37.80;24.30;;;;;;;7.73;100.00;99548.09;5098618;28;20024;-78
2022/04/22 01:57:44;;;;;;;37.65;24.55;;;;;;;7.67;100.00;99559.81;5080580;28;20020;-78
2022/04/22 02:00:10;;;;;;;39.92;25.77;;;;;;;7.63;100.00;99554.63;5098540;28;20024;-78
2022/04/22 02:02:36;;;;;;;39.22;24.95;;;;;;;7.62;100.00;99552.88;5098876;28;20048;-78
2022/04/22 02:05:02;;;;;;;37.63;23.80;;;;;;;7.64;100.00;99546.59;5098512;28;20153;-78
2022/04/22 02:07:27;;;;;;;35.95;23.92;;;;;;;7.59;100.00;99545.88;5098623;28;20024;-78
2022/04/22 02:09:53;;;;;;;43.33;26.33;;;;;;;7.55;100.00;99542.44;5098501;28;20024;-79
2022/04/22 02:12:18;;;;;;;38.92;24.35;;;;;;;7.52;100.00;99545.19;5098448;28;20023;-78
2022/04/22 02:14:43;;;;;;;41.20;25.40;;;;;;;7.46;100.00;99542.72;5098213;28;20035;-78
2022/04/22 02:17:09;;;;;;;42.33;26.65;;;;;;;7.43;100.00;99543.66;5079838;28;20023;-78
2022/04/22 02:19:34;;;;;;;40.78;24.95;;;;;;;7.39;100.00;99539.38;5079774;28;20024;-78
2022/04/22 02:21:59;;;;;;;42.58;25.40;;;;;;;7.37;100.00;99536.75;5097815;28;20111;-78
2022/04/22 02:24:25;;;;;;;37.85;24.88;;;;;;;7.30;100.00;99534.31;5097899;28;20031;-78
2022/04/22 02:29:34;;;;;;;41.92;26.00;;;;;;;7.29;100.00;99529.91;5098219;28;20065;-78
2022/04/22 02:31:59;;;;;;;38.55;24.45;;;;;;;7.30;100.00;99534.31;5097554;28;20024;-78
2022/04/22 02:34:25;;;;;;;43.20;26.27;;;;;;;7.29;100.00;99524.63;5079639;28;20110;-78
2022/04/22 02:36:51;;;;;;;45.00;26.95;;;;;;;7.25;100.00;99527.34;5096643;28;20064;-78
2022/04/22 02:39:17;;;;;;;43.92;26.25;;;;;;;7.27;100.00;99521.97;5079275;28;20027;-78
2022/04/22 02:47:11;;;;;;;40.95;26.95;;;;;;;7.20;100.00;99521.28;5098131;28;20539;-78
2022/04/22 02:49:37;;;;;;;44.80;25.85;;;;;;;7.13;100.00;99514.44;5097766;28;20031;-78
2022/04/22 02:52:02;;;;;;;40.85;25.75;;;;;;;7.06;100.00;99520.81;5078991;28;20023;-78
2022/04/22 02:54:30;;;;;;;43.85;26.80;;;;;;;7.05;100.00;99525.25;5096998;28;20088;-78
2022/04/22 02:56:57;;;;;;;43.78;27.73;;;;;;;7.02;100.00;99517.38;5097542;28;20027;-78
2022/04/22 02:59:22;;;;;;;45.45;27.92;;;;;;;6.97;100.00;99514.84;5097627;28;20073;-78
2022/04/22 03:01:48;;;;;;;46.53;28.25;;;;;;;6.94;100.00;99509.63;5079038;28;20423;-78
2022/04/22 03:04:15;;;;;;;46.13;27.45;;;;;;;6.91;100.00;99512.34;5097045;28;20030;-78
2022/04/22 03:06:40;;;;;;;43.70;27.75;;;;;;;6.90;100.00;99515.94;5096511;28;20028;-78
2022/04/22 03:09:06;;;;;;;47.78;28.23;;;;;;;6.85;100.00;99510.75;5077525;28;20020;-77
2022/04/22 03:11:31;;;;;;;50.03;29.92;;;;;;;6.84;100.00;99509.00;5095629;28;20024;-77
2022/04/22 03:13:57;;;;;;;54.85;31.10;;;;;;;6.85;100.00;99504.56;5077442;28;20024;-77
2022/04/22 03:16:27;;;;;;;53.55;31.83;;;;;;;6.85;100.00;99504.56;5095768;28;20016;-77
2022/04/22 03:18:53;;;;;;;50.97;31.35;;;;;;;6.87;100.00;99502.75;5095525;28;20031;-77
2022/04/22 03:21:19;;;;;;;58.72;33.15;;;;;;;6.88;100.00;99504.50;5095389;28;20035;-77
2022/04/22 03:23:44;;;;;;;53.60;32.25;;;;;;;6.90;100.00;99507.97;5095502;28;20437;-78
2022/04/22 03:26:10;;;;;;;57.22;32.70;;;;;;;6.87;100.00;99510.72;5095565;28;20114;-77
2022/04/22 03:28:35;;;;;;;55.25;33.97;;;;;;;6.88;100.00;99505.34;5096057;28;20051;-77
2022/04/22 03:31:00;;;;;;;58.53;32.70;;;;;;;6.86;100.00;99506.28;5095168;28;20043;-77
2022/04/22 03:33:26;;;;;;;51.63;31.85;;;;;;;6.87;100.00;99505.41;5094994;28;20385;-77
2022/04/22 03:35:51;;;;;;;55.05;33.47;;;;;;;6.85;100.00;99499.25;5095085;28;20116;-77
2022/04/22 03:38:19;;;;;;;57.03;33.33;;;;;;;6.89;100.00;99500.91;5077045;28;20118;-77
2022/04/22 03:40:45;;;;;;;56.95;31.80;;;;;;;6.89;100.00;99501.78;5076869;28;20099;-77
2022/04/22 03:43:10;;;;;;;56.28;31.95;;;;;;;6.91;100.00;99507.03;5095079;28;20023;-77
2022/04/22 03:45:36;;;;;;;49.08;30.17;;;;;;;6.89;100.00;99492.94;5094772;28;20020;-77
2022/04/22 03:48:05;;;;;;;49.85;31.00;;;;;;;6.91;100.00;99499.09;5094604;28;20381;-78
2022/04/22 03:50:30;;;;;;;47.28;29.48;;;;;;;6.91;100.00;99489.34;5094650;28;20026;-78
2022/04/22 03:52:55;;;;;;;52.13;30.70;;;;;;;6.89;100.00;99485.88;5076321;28;20099;-77
2022/04/22 03:55:21;;;;;;;49.25;29.48;;;;;;;6.87;100.00;99486.81;5076335;28;20097;-77
2022/04/22 04:00:30;;;;;;;48.33;29.60;;;;;;;6.86;100.00;99479.75;5095347;28;20027;-78
2022/04/22 04:02:55;;;;;;;51.70;30.00;;;;;;;6.81;100.00;99483.41;5095967;28;20024;-78
2022/04/22 04:05:21;;;;;;;50.45;30.90;;;;;;;6.81;100.00;99478.13;5095703;28;20448;-78
2022/04/22 04:07:46;;;;;;;51.33;29.88;;;;;;;6.81;100.00;99483.41;5079065;28;20026;-77
2022/04/22 04:15:59;;;;;;;51.50;29.65;;;;;;;6.85;100.00;99486.00;5101157;28;20027;-79
2022/04/22 04:18:33;;;;;;;57.08;31.92;;;;;;;6.87;100.00;99486.81;5102039;28;20370;-79
2022/04/22 04:23:44;;;;;;;55.95;31.52;;;;;;;6.90;100.00;99482.31;5102564;28;20027;-78
2022/04/22 04:26:10;;;;;;;53.53;31.95;;;;;;;6.91;100.00;99484.03;5080773;28;20044;-78
2022/04/22 04:28:37;;;;;;;57.58;34.15;;;;;;;6.94;100.00;99475.13;5081314;28;20052;-77
2022/04/22 04:31:02;;;;;;;60.65;32.28;;;;;;;6.97;100.00;99472.38;5080826;28;20039;-77
2022/04/22 04:33:29;;;;;;;58.35;33.75;;;;;;;7.01;100.00;99474.03;5099171;28;20024;-77
2022/04/22 04:35:54;;;;;;;57.22;33.28;;;;;;;7.03;100.00;99472.22;5081029;28;20073;-78
2022/04/22 04:38:20;;;;;;;60.80;34.10;;;;;;;7.06;100.00;99476.53;5099307;28;20050;-77
2022/04/22 04:40:46;;;;;;;56.00;32.92;;;;;;;7.11;100.00;99484.41;5099190;28;20129;-79
2022/04/22 04:43:11;;;;;;;53.63;31.33;;;;;;;7.10;100.00;99480.00;5099395;28;20028;-79
2022/04/22 04:45:37;;;;;;;53.42;31.90;;;;;;;7.10;100.00;99480.88;5098485;28;20027;-78
2022/04/22 04:48:03;;;;;;;54.10;30.75;;;;;;;7.12;100.00;99480.81;5098612;28;20034;-78
2022/04/22 04:50:29;;;;;;;47.15;28.48;;;;;;;7.12;100.00;99475.50;5099823;28;20024;-78
2022/04/22 04:52:54;;;;;;;46.58;26.45;;;;;;;7.14;100.00;99474.53;5099042;28;20027;-78
2022/04/22 04:55:19;;;;;;;42.78;25.98;;;;;;;7.14;100.00;99465.69;5096763;28;20118;-78
2022/04/22 04:57:45;;;;;;;42.55;25.98;;;;;;;7.14;100.00;99463.91;5096595;28;20057;-79
2022/04/22 05:00:11;;;;;;;40.45;24.98;;;;;;;7.14;100.00;99463.03;5098628;28;20427;-78
2022/04/22 05:02:37;;;;;;;40.20;23.65;;;;;;;7.16;100.00;99463.91;5078904;28;20020;-78
2022/04/22 05:05:09;;;;;;;37.75;23.27;;;;;;;7.16;100.00;99455.94;5095547;28;20045;-78
2022/04/22 05:07:45;;;;;;;37.53;21.50;;;;;;;7.15;100.00;99467.44;5095983;28;20016;-78
2022/04/22 05:10:10;;;;;;;35.00;21.55;;;;;;;7.17;100.00;99462.97;5095702;28;20055;-78
2022/04/22 05:12:36;;;;;;;33.63;20.67;;;;;;;7.18;100.00;99459.41;5095602;28;20048;-78
2022/04/22 05:15:01;;;;;;;30.52;20.33;;;;;;;7.18;100.00;99464.72;5077663;28;20492;-77
2022/04/22 05:17:27;;;;;;;30.23;17.98;;;;;;;7.26;100.00;99462.72;5075050;28;20110;-77
2022/04/22 05:19:52;;;;;;;32.35;19.23;;;;;;;7.24;100.00;99463.69;5074934;28;20035;-77
2022/04/22 05:22:17;;;;;;;28.95;18.48;;;;;;;7.25;100.00;99468.94;5093095;28;20017;-77
2022/04/22 05:24:42;;;;;;;26.10;16.05;;;;;;;7.23;100.00;99462.78;5075360;28;20024;-77
2022/04/22 05:27:08;;;;;;;25.60;15.85;;;;;;;7.15;100.00;99464.81;5093132;28;20393;-77
2022/04/22 05:35:01;;;;;;;24.77;13.18;;;;;;;7.10;100.00;99472.03;5093076;28;19919;-76
2022/04/22 05:37:26;;;;;;;22.00;13.27;;;;;;;7.12;100.00;99475.50;5093064;28;20020;-76
2022/04/22 05:39:51;;;;;;;18.13;11.73;;;;;;;7.09;100.00;99475.59;5092911;28;20077;-76
2022/04/22 05:42:16;;;;;;;19.02;12.15;;;;;;;7.09;100.00;99475.59;5074807;28;20020;-76
2022/04/22 05:44:42;;;;;;;20.73;11.48;;;;;;;7.11;100.00;99473.78;5092759;28;20078;-76
2022/04/22 05:47:07;;;;;;;17.45;11.40;;;;;;;7.16;100.00;99474.53;5093184;28;20028;-77
2022/04/22 05:49:33;;;;;;;17.92;11.05;;;;;;;7.17;100.00;99473.59;5074756;28;20026;-76
2022/04/22 05:51:58;;;;;;;17.27;10.57;;;;;;;7.14;100.00;99484.28;5092889;28;20129;-77
2022/04/22 05:54:23;;;;;;;14.00;9.55;;;;;;;7.29;100.00;99474.16;5092837;28;20028;-76
2022/04/22 05:56:48;;;;;;;17.67;10.20;;;;;;;7.25;100.00;99474.25;5092769;28;20455;-76
2022/04/22 05:59:14;;;;;;;17.60;9.20;;;;;;;7.22;100.00;99470.78;5092750;28;20074;-76
2022/04/22 06:01:39;;;;;;;15.55;9.20;;;;;;;7.25;100.00;99476.91;5092937;28;20469;-76
2022/04/22 06:04:04;;;;;;;15.02;8.98;;;;;;;7.14;100.00;99465.69;5074700;28;20028;-76
2022/04/22 06:06:30;;;;;;;16.38;8.50;;;;;;;7.25;100.00;99476.91;5092683;28;20066;-76
2022/04/22 06:11:40;;;;;;;;;;;;;;;7.30;100.00;99481.19;5095466;28;20034;-76
2022/04/22 06:14:05;;;;;;;12.25;8.10;;;;;;;7.36;100.00;99479.25;5096686;28;19912;-76
2022/04/22 06:16:30;;;;;;;13.85;7.90;;;;;;;7.28;100.00;99475.06;5078222;28;20032;-76
2022/04/22 06:18:56;;;;;;;12.25;8.40;;;;;;;7.32;100.00;99476.72;5096303;28;20024;-76
2022/04/22 06:21:21;;;;;;;13.20;7.43;;;;;;;7.36;100.00;99473.06;5097941;22;20044;-76
2022/04/22 06:23:46;;;;;;;9.90;6.78;;;;;;;7.38;100.00;99468.56;5096075;28;20081;-74
2022/04/22 06:26:12;;;;;;;13.38;7.95;;;;;;;7.34;100.00;99458.97;5096052;28;20417;-75
2022/04/22 06:28:37;;;;;;;11.23;7.10;;;;;;;7.45;100.00;99472.75;5096451;28;20114;-75
2022/04/22 06:31:02;;;;;;;12.95;6.85;;;;;;;7.53;100.00;99463.69;5096277;28;20024;-75
2022/04/22 06:33:28;;;;;;;11.77;7.55;;;;;;;7.60;100.00;99468.75;5096311;28;20046;-75
2022/04/22 06:35:53;;;;;;;12.50;6.90;;;;;;;7.59;100.00;99474.13;5096010;28;20067;-75
2022/04/22 06:38:19;;;;;;;11.95;6.10;;;;;;;7.63;100.00;99462.47;5096104;28;20052;-75
2022/04/22 06:46:16;;;;;;;10.35;6.15;;;;;;;7.64;100.00;99461.59;5095918;28;20027;-75
2022/04/22 06:48:43;;;;;;;10.48;6.35;;;;;;;7.55;100.00;99451.25;5096057;28;20020;-75
2022/04/22 06:51:09;;;;;;;12.82;6.75;;;;;;;7.63;100.00;99459.81;5095705;28;20020;-76
2022/04/22 06:53:36;;;;;;;11.57;6.38;;;;;;;7.72;100.00;99461.34;5095640;28;20031;-76
2022/04/22 06:56:02;;;;;;;10.15;6.30;;;;;;;7.79;100.00;99454.03;5096192;28;20384;-76
2022/04/22 06:58:31;;;;;;;9.45;5.95;;;;;;;7.86;100.00;99455.56;5095606;28;20024;-76
2022/04/22 07:00:57;;;;;;;12.75;6.20;;;;;;;7.87;100.00;99456.44;5095657;28;20028;-75
2022/04/22 07:03:22;;;;;;;10.52;5.70;;;;;;;7.99;100.00;99455.19;5077522;28;20073;-75
2022/04/22 07:05:49;;;;;;;9.38;6.05;;;;;;;8.02;100.00;99461.25;5095530;28;20095;-75
2022/04/22 07:08:17;;;;;;;10.50;5.55;;;;;;;8.12;100.00;99453.84;5095426;28;20498;-75
2022/04/22 07:10:44;;;;;;;10.88;5.70;;;;;;;8.09;100.00;99456.59;5095770;28;20027;-75
2022/04/22 07:13:10;;;;;;;11.13;6.28;;;;;;;8.15;100.00;99456.41;5077167;28;20462;-76
2022/04/22 07:15:36;;;;;;;12.15;6.40;;;;;;;8.06;100.00;99462.03;5095662;28;20028;-75
2022/04/22 07:18:01;;;;;;;9.07;5.93;;;;;;;8.10;100.00;99461.00;5095240;28;20024;-75
2022/04/22 07:20:27;;;;;;;9.82;6.28;;;;;;;8.25;100.00;99462.28;5095094;28;20028;-76
2022/04/22 07:22:53;;;;;;;10.15;6.55;;;;;;;8.37;100.00;99457.47;5094495;28;20035;-76
2022/04/22 07:25:20;;;;;;;11.60;7.22;;;;;;;8.51;100.00;99467.63;5095771;28;20110;-76
2022/04/22 07:27:47;;;;;;;11.57;6.32;;;;;;;8.65;100.00;99461.88;5094893;28;20070;-76
2022/04/22 07:30:14;;;;;;;11.95;7.07;;;;;;;8.67;100.00;99459.16;5095008;28;20431;-75
2022/04/22 07:32:41;;;;;;;10.48;6.65;;;;;;;8.62;100.00;99454.00;5095071;28;20122;-76
2022/04/22 07:35:12;;;;;;;11.02;6.57;;;;;;;8.49;100.00;99458.84;5095089;28;20028;-77
2022/04/22 07:37:41;;;;;;;12.80;7.07;;;;;;;8.39;100.00;99458.28;5076759;28;20058;-75
2022/04/22 07:40:08;;;;;;;11.30;6.75;;;;;;;8.42;100.00;99459.97;5095110;28;20431;-76
2022/04/22 07:42:35;;;;;;;10.20;6.13;;;;;;;8.48;100.00;99454.44;5094864;28;20095;-76
2022/04/22 07:47:50;;;;;;;12.02;6.35;;;;;;;8.66;100.00;99450.28;5095657;28;20031;-77
2022/04/22 07:50:17;;;;;;;10.27;5.90;;;;;;;8.78;100.00;99442.78;5077146;28;20024;-77
2022/04/22 07:52:44;;;;;;;12.75;6.28;;;;;;;8.67;100.00;99445.84;5095113;28;20032;-77
2022/04/22 07:55:11;;;;;;;10.15;5.75;;;;;;;8.71;100.00;99435.03;5076642;28;20031;-78
2022/04/22 07:57:36;;;;;;;10.45;6.05;;;;;;;8.91;100.00;99437.91;5078024;28;20024;-77
2022/04/22 08:00:03;;;;;;;9.60;6.05;;;;;;;8.87;100.00;99436.25;5095583;28;20469;-77
2022/04/22 08:02:29;;;;;;;7.72;5.85;;;;;;;8.92;100.00;99439.63;5076560;28;20024;-78
2022/04/22 08:04:54;;;;;;;18.30;6.53;;;;;;;9.04;100.00;99433.84;5076572;28;20030;-77
2022/04/22 08:07:19;;;;;;;13.00;6.05;;;;;;;9.17;100.00;99446.72;5095094;28;20028;-78
2022/04/22 08:09:45;;;;;;;9.77;6.28;;;;;;;9.37;100.00;99447.72;5096819;28;20032;-78
2022/04/22 08:12:12;;;;;;;9.23;6.22;;;;;;;9.57;100.00;99446.06;5096025;28;20024;-77
2022/04/22 08:14:38;;;;;;;8.35;5.40;;;;;;;9.63;100.00;99435.19;5094595;28;20114;-76
2022/04/22 08:17:03;;;;;;;10.35;5.20;;;;;;;9.61;100.00;99442.38;5094146;28;20024;-76
2022/04/22 08:19:29;;;;;;;9.05;5.60;;;;;;;9.74;100.00;99444.56;5094131;28;20122;-76
2022/04/22 08:21:54;;;;;;;7.88;5.18;;;;;;;9.82;100.00;99440.63;5075998;28;20065;-76
2022/04/22 08:24:19;;;;;;;7.55;5.47;;;;;;;9.88;100.00;99443.97;5094194;28;20020;-76
2022/04/22 08:26:45;;;;;;;11.00;5.88;;;;;;;10.02;100.00;99446.97;5093967;28;20024;-76
2022/04/22 08:29:10;;;;;;;9.40;5.55;;;;;;;10.11;100.00;99437.69;5093935;28;20042;-77
2022/04/22 08:31:36;;;;;;;8.35;5.72;;;;;;;10.20;100.00;99433.78;5093818;28;20114;-76
2022/04/22 08:34:02;;;;;;;8.98;5.50;;;;;;;10.29;100.00;99435.19;5093283;28;20055;-77
2022/04/22 08:36:28;;;;;;;8.93;5.05;;;;;;;10.25;100.00;99438.91;5093774;28;20081;-76
2022/04/22 08:38:55;;;;;;;10.10;5.75;;;;;;;10.31;100.00;99438.63;5093901;28;20058;-77
2022/04/22 08:41:21;;;;;;;8.30;5.32;;;;;;;10.29;100.00;99437.84;5093865;28;20370;-77
2022/04/22 08:43:48;;;;;;;11.60;6.00;;;;;;;10.45;100.00;99442.53;5093928;28;20016;-77
2022/04/22 08:51:44;;;;;;;12.45;6.43;;;;;;;10.57;98.74;99439.34;5093599;28;20035;-76
2022/04/22 08:54:12;;;;;;;8.65;5.78;;;;;;;10.65;99.68;99438.13;5093806;28;20135;-76
2022/04/22 08:56:39;;;;;;;11.45;6.15;;;;;;;10.92;98.40;99432.53;5093601;28;20031;-76
2022/04/22 08:59:05;;;;;;;9.35;6.38;;;;;;;10.84;98.04;99428.41;5075471;28;20024;-76
2022/04/22 09:01:30;;;;;;;9.85;6.65;;;;;;;10.79;97.42;99425.06;5075361;28;20016;-76
2022/04/22 09:03:55;;;;;;;9.00;6.32;;;;;;;11.08;97.27;99431.81;5076285;28;20032;-77
2022/04/22 09:06:23;;;;;;;10.07;5.95;;;;;;;11.42;96.33;99424.88;5093945;28;20028;-77
2022/04/22 09:08:50;;;;;;;9.88;5.78;;;;;;;11.41;95.88;99436.53;5094056;28;20431;-77
2022/04/22 09:11:16;;;;;;;10.05;5.95;;;;;;;11.58;93.37;99424.16;5075510;28;20020;-77
2022/04/22 09:13:41;;;;;;;9.85;6.28;;;;;;;11.84;94.81;99432.72;5093604;28;20024;-77
2022/04/22 09:16:08;;;;;;;10.63;5.93;;;;;;;11.90;92.44;99424.41;5076211;28;20507;-78
2022/04/22 09:18:37;;;;;;;10.40;5.95;;;;;;;11.69;91.77;99424.50;5094838;28;20107;-78
2022/04/22 09:21:06;;;;;;;9.65;5.95;;;;;;;11.52;91.91;99427.97;5094479;28;20039;-77
2022/04/22 09:23:36;;;;;;;9.68;6.60;;;;;;;11.83;92.83;99412.25;5094600;28;20035;-77
2022/04/22 09:26:04;;;;;;;13.52;6.68;;;;;;;11.60;92.32;99404.41;5094053;28;20028;-76
2022/04/22 09:28:30;;;;;;;11.50;6.50;;;;;;;11.75;91.80;99411.78;5093379;28;20024;-76
2022/04/22 09:30:56;;;;;;;8.85;6.30;;;;;;;11.79;92.33;99408.00;5093476;28;20016;-76
2022/04/22 09:33:22;;;;;;;7.78;5.43;;;;;;;11.71;90.49;99411.03;5093099;28;20035;-76
2022/04/22 09:44:24;;;;;;;7.47;5.47;;;;;;;11.92;89.37;99410.94;5094493;28;19989;-78
2022/04/22 09:47:09;;;;;;;9.88;5.75;;;;;;;11.87;89.90;99408.50;5096591;28;20028;-77
2022/04/22 09:49:40;;;;;;;10.45;5.45;;;;;;;12.22;90.28;99401.44;5098693;28;20020;-78
2022/04/22 09:52:05;;;;;;;7.72;5.38;;;;;;;12.71;88.09;99410.53;5098821;28;20012;-78
2022/04/22 09:54:31;;;;;;;9.70;5.20;;;;;;;13.03;86.36;99404.41;5099245;28;20054;-78
2022/04/22 09:56:57;;;;;;;8.65;5.20;;;;;;;13.13;83.55;99410.13;5080686;28;20115;-77
2022/04/22 09:59:28;;;;;;;8.98;4.95;;;;;;;12.98;86.38;99399.31;5099038;28;20038;-78
2022/04/22 10:01:54;;;;;;;6.07;5.15;;;;;;;12.63;84.49;99401.09;5098916;28;20030;-77
2022/04/22 10:04:21;;;;;;;10.20;5.30;;;;;;;12.55;84.38;99397.13;5079922;28;20050;-76
2022/04/22 10:06:47;;;;;;;9.98;4.97;;;;;;;12.68;85.23;99394.66;5098260;28;20028;-76
2022/04/22 10:09:16;;;;;;;8.88;4.88;;;;;;;12.60;83.75;99403.94;5079622;28;20023;-77
2022/04/22 10:11:44;;;;;;;8.57;5.05;;;;;;;12.84;84.72;99389.31;5097390;28;20054;-76
2022/04/22 10:14:11;;;;;;;8.88;4.80;;;;;;;12.85;83.29;99389.25;5079254;28;20028;-77
2022/04/22 10:16:37;;;;;;;7.90;5.00;;;;;;;12.98;83.17;99388.59;5097668;28;20027;-76
2022/04/22 10:19:04;;;;;;;7.20;4.50;;;;;;;13.38;81.08;99372.06;5098650;28;20028;-78
2022/04/22 10:21:29;;;;;;;7.88;4.63;;;;;;;13.77;79.61;99371.72;5080359;28;20055;-78
2022/04/22 10:23:58;;;;;;;8.15;4.53;;;;;;;14.23;79.32;99375.31;5098298;28;20038;-78
2022/04/22 10:26:26;;;;;;;7.93;4.50;;;;;;;14.24;77.26;99376.19;5098577;28;20129;-78
2022/04/22 10:28:53;;;;;;;7.72;4.00;;;;;;;14.40;74.49;99376.13;5099178;28;20059;-77
2022/04/22 10:31:20;;;;;;;8.57;5.13;;;;;;;14.29;74.57;99371.41;5099728;28;20107;-78
2022/04/22 10:33:47;;;;;;;7.70;4.75;;;;;;;14.03;73.17;99365.78;5082780;28;20028;-78
2022/04/22 10:36:19;;;;;;;7.82;4.57;;;;;;;14.07;72.38;99370.03;5098960;28;20027;-78
2022/04/22 10:38:49;;;;;;;7.63;4.60;;;;;;;14.12;72.12;99365.22;5097907;28;20028;-77
2022/04/22 10:41:20;;;;;;;7.03;4.35;;;;;;;14.59;71.99;99367.78;5098658;28;20449;-77
2022/04/22 10:47:13;;;;;;;9.27;4.55;;;;;;;14.77;70.63;99364.91;5098452;28;20020;-77
2022/04/22 10:49:40;;;;;;;8.90;4.93;;;;;;;15.25;70.68;99362.88;5097184;28;20026;-77
2022/04/22 10:52:13;;;;;;;11.18;5.00;;;;;;;15.40;71.38;99369.09;5097348;28;20031;-77
2022/04/22 10:54:58;;;;;;;8.88;5.20;;;;;;;15.34;67.46;99369.47;5098461;28;20050;-78
2022/04/22 10:57:42;;;;;;;10.18;5.43;;;;;;;15.46;67.52;99365.97;5098255;28;20484;-78
2022/04/22 11:00:07;;;;;;;10.88;5.30;;;;;;;14.94;70.87;99358.53;5099231;28;20114;-78
2022/04/22 11:02:42;;;;;;;11.75;5.75;;;;;;;15.21;68.75;99364.03;5099581;28;20023;-78
2022/04/22 11:05:19;;;;;;;10.95;5.65;;;;;;;15.44;67.27;99365.22;5099343;28;20027;-78
2022/04/22 11:07:50;;;;;;;8.57;5.57;;;;;;;15.42;66.63;99369.84;5101215;28;20396;-78
2022/04/22 11:10:19;;;;;;;11.13;5.90;;;;;;;15.58;67.09;99360.78;5100412;28;20028;-78
2022/04/22 11:12:56;;;;;;;10.88;5.70;;;;;;;15.74;65.81;99369.56;5082501;28;20020;-79
2022/04/22 11:15:43;;;;;;;9.38;5.57;;;;;;;15.13;66.25;99360.00;5080361;28;20032;-77
2022/04/22 11:18:12;;;;;;;11.25;5.82;;;;;;;14.56;67.90;99351.00;5099489;28;20091;-77
2022/04/22 11:20:38;;;;;;;8.70;5.93;;;;;;;14.24;70.07;99357.38;5098015;28;20028;-78
2022/04/22 11:23:06;;;;;;;8.95;6.13;;;;;;;14.29;71.79;99352.59;5079874;28;20020;-77
2022/04/22 11:25:33;;;;;;;11.18;6.18;;;;;;;14.14;72.05;99351.72;5079038;28;20028;-77
2022/04/22 11:27:59;;;;;;;10.35;5.72;;;;;;;14.09;70.98;99346.63;5078830;28;20052;-77
2022/04/22 11:30:26;;;;;;;9.05;5.57;;;;;;;15.09;74.10;99355.81;5077689;28;20105;-76
2022/04/22 11:33:10;;;;;;;16.08;6.47;;;;;;;15.78;71.44;99355.88;5097680;28;20044;-78
2022/04/22 11:35:37;;;;;;;10.85;6.65;;;;;;;15.18;66.94;99343.59;5100356;28;20028;-77
2022/04/22 11:38:04;;;;;;;10.60;6.57;;;;;;;14.93;68.88;99342.47;5098514;28;20492;-78
2022/04/22 11:40:35;;;;;;;11.80;6.90;;;;;;;15.20;69.63;99349.75;5080258;28;20050;-78
2022/04/22 11:43:10;;;;;;;10.50;6.32;;;;;;;14.91;68.80;99347.09;5098776;28;20020;-77
2022/04/22 11:45:47;;;;;;;13.80;6.63;;;;;;;14.58;71.79;99349.97;5080199;28;20103;-79
2022/04/22 11:48:23;;;;;;;12.18;7.40;;;;;;;14.23;73.43;99342.22;5080274;28;20020;-78
2022/04/22 11:50:49;;;;;;;10.18;7.00;;;;;;;14.23;73.83;99356.53;5079040;28;20069;-77
2022/04/22 11:53:15;;;;;;;10.07;7.18;;;;;;;14.09;74.65;99354.69;5096144;28;20031;-77
2022/04/22 11:55:44;;;;;;;11.82;7.32;;;;;;;13.75;75.91;99360.22;5096954;28;20028;-77
2022/04/22 11:58:15;;;;;;;11.43;7.85;;;;;;;13.64;75.11;99358.16;5078182;28;20047;-77
2022/04/22 12:06:15;;;;;;;12.45;7.75;;;;;;;13.31;78.97;99346.56;5096125;28;20103;-76
2022/04/22 12:08:53;;;;;;;16.00;8.20;;;;;;;13.22;76.71;99350.63;5095833;28;20027;-77
2022/04/22 12:11:19;;;;;;;13.10;7.80;;;;;;;13.16;78.11;99351.00;5097152;28;20481;-78
2022/04/22 12:13:48;;;;;;;12.88;7.47;;;;;;;13.13;78.15;99352.03;5097204;28;20150;-77
2022/04/22 12:16:21;;;;;;;13.70;8.35;;;;;;;13.24;79.76;99348.75;5079532;28;20138;-78
2022/04/22 12:18:51;;;;;;;11.10;7.50;;;;;;;13.44;79.33;99353.91;5097541;28;20028;-78
2022/04/22 12:21:17;;;;;;;14.77;9.13;;;;;;;13.34;77.74;99342.84;5108422;22;20300;-77
2022/04/22 12:23:45;;;;;;;14.80;8.80;;;;;;;13.21;78.03;99337.31;5094387;28;20446;-77
2022/04/22 12:26:14;;;;;;;13.48;8.35;;;;;;;13.30;79.35;99337.66;5075808;28;20070;-77
2022/04/22 12:29:01;;;;;;;13.20;8.60;;;;;;;13.39;80.54;99340.78;5093817;28;20073;-77